createdAt,value
2022-07-26T00:00:13.112Z,28.64
2022-07-26T00:03:00.067Z,28.59
2022-07-26T00:05:28.694Z,28.57
2022-07-26T00:08:10.831Z,28.53
2022-07-26T00:10:39.629Z,28.50
2022-07-26T00:13:06.567Z,28.47
2022-07-26T00:15:33.496Z,28.43
2022-07-26T00:18:00.671Z,28.42
2022-07-26T00:20:27.818Z,28.40
2022-07-26T00:22:55.598Z,28.33
2022-07-26T00:25:23.340Z,28.33
2022-07-26T00:27:50.398Z,28.29
2022-07-26T00:30:17.357Z,28.28
2022-07-26T00:32:44.621Z,28.26
2022-07-26T00:35:11.564Z,28.20
2022-07-26T00:37:38.703Z,28.13
2022-07-26T00:40:06.538Z,28.13
2022-07-26T00:42:35.966Z,28.12
2022-07-26T00:45:03.982Z,28.05
2022-07-26T00:47:31.142Z,28.07
2022-07-26T00:49:58.153Z,28.02
2022-07-26T00:52:25.165Z,27.96
2022-07-26T00:54:54.333Z,27.93
2022-07-26T00:57:22.030Z,27.93
2022-07-26T00:59:49.093Z,27.90
2022-07-26T01:02:17.917Z,27.86
2022-07-26T01:04:45.290Z,27.82
2022-07-26T01:07:14.970Z,27.79
2022-07-26T01:09:42.849Z,27.81
2022-07-26T01:12:09.890Z,27.79
2022-07-26T01:14:36.893Z,27.74
2022-07-26T01:17:04.022Z,27.69
2022-07-26T01:19:30.963Z,27.67
2022-07-26T01:21:57.988Z,27.61
2022-07-26T01:24:25.120Z,27.63
2022-07-26T01:26:52.325Z,27.61
2022-07-26T01:29:19.195Z,27.62
2022-07-26T01:31:46.361Z,27.61
2022-07-26T01:34:13.305Z,27.57
2022-07-26T01:36:40.169Z,27.52
2022-07-26T01:39:07.380Z,27.49
2022-07-26T01:41:38.078Z,27.49
2022-07-26T01:44:06.676Z,27.48
2022-07-26T01:46:35.013Z,27.47
2022-07-26T01:49:02.100Z,27.45
2022-07-26T01:51:29.051Z,27.41
2022-07-26T01:53:56.359Z,27.41
2022-07-26T01:56:23.210Z,27.39
2022-07-26T01:58:50.327Z,27.36
2022-07-26T02:01:38.163Z,27.35
2022-07-26T02:04:04.585Z,27.30
2022-07-26T02:06:32.075Z,27.28
2022-07-26T02:09:00.764Z,27.25
2022-07-26T02:11:28.951Z,27.25
2022-07-26T02:13:56.062Z,27.23
2022-07-26T02:16:22.999Z,27.21
2022-07-26T02:18:49.879Z,27.17
2022-07-26T02:21:16.974Z,27.14
2022-07-26T02:23:44.773Z,27.15
2022-07-26T02:26:11.666Z,27.13
2022-07-26T02:28:38.882Z,27.06
2022-07-26T02:31:05.832Z,27.06
2022-07-26T02:33:32.777Z,27.07
2022-07-26T02:35:59.878Z,27.03
2022-07-26T02:38:26.775Z,27.03
2022-07-26T02:40:53.736Z,26.99
2022-07-26T02:43:21.273Z,26.97
2022-07-26T02:46:01.226Z,26.98
2022-07-26T02:48:30.927Z,26.92
2022-07-26T02:50:57.887Z,26.94
2022-07-26T02:53:24.784Z,26.93
2022-07-26T02:55:51.913Z,26.92
2022-07-26T02:58:21.593Z,26.83
2022-07-26T03:00:48.818Z,26.86
2022-07-26T03:03:16.069Z,26.84
2022-07-26T03:05:43.073Z,26.88
2022-07-26T03:08:09.921Z,26.87
2022-07-26T03:10:37.022Z,26.84
2022-07-26T03:13:03.883Z,26.84
2022-07-26T03:15:30.920Z,26.84
2022-07-26T03:17:58.189Z,26.82
2022-07-26T03:20:25.117Z,26.78
2022-07-26T03:22:52.061Z,26.79
2022-07-26T03:25:19.207Z,26.76
2022-07-26T03:27:46.072Z,26.76
2022-07-26T03:30:13.409Z,26.75
2022-07-26T03:32:40.529Z,26.76
2022-07-26T03:35:08.144Z,26.74
2022-07-26T03:37:45.415Z,26.71
2022-07-26T03:40:17.308Z,26.66
2022-07-26T03:42:47.627Z,26.63
2022-07-26T03:45:15.396Z,26.62
2022-07-26T03:47:42.305Z,26.66
2022-07-26T03:50:09.744Z,26.67
2022-07-26T03:52:36.942Z,26.67
2022-07-26T03:55:24.029Z,26.65
2022-07-26T03:57:51.287Z,26.67
2022-07-26T04:00:18.267Z,26.64
2022-07-26T04:02:45.144Z,26.64
2022-07-26T04:05:12.285Z,26.66
2022-07-26T04:07:43.417Z,26.66
2022-07-26T04:10:20.158Z,26.68
2022-07-26T04:12:47.025Z,26.65
2022-07-26T04:15:16.190Z,26.67
2022-07-26T04:17:43.409Z,26.67
2022-07-26T04:20:11.102Z,26.68
2022-07-26T04:22:38.527Z,26.68
2022-07-26T04:25:06.612Z,26.68
2022-07-26T04:27:33.616Z,26.70
2022-07-26T04:30:00.499Z,26.71
2022-07-26T04:32:27.679Z,26.71
2022-07-26T04:34:54.586Z,26.71
2022-07-26T04:37:21.444Z,26.69
2022-07-26T04:39:54.499Z,26.64
2022-07-26T04:42:21.895Z,26.70
2022-07-26T04:44:49.047Z,26.61
2022-07-26T04:47:15.963Z,26.71
2022-07-26T04:49:42.831Z,26.72
2022-07-26T04:52:09.899Z,26.65
2022-07-26T04:54:36.795Z,26.72
2022-07-26T04:57:03.868Z,26.71
2022-07-26T04:59:32.870Z,26.72
2022-07-26T05:02:00.217Z,26.75
2022-07-26T05:04:27.259Z,26.76
2022-07-26T05:06:54.385Z,26.74
2022-07-26T05:09:21.267Z,26.77
2022-07-26T05:11:48.178Z,26.75
2022-07-26T05:14:15.327Z,26.81
2022-07-26T05:16:44.375Z,26.83
2022-07-26T05:19:13.659Z,26.84
2022-07-26T05:21:41.036Z,26.88
2022-07-26T05:24:08.559Z,26.88
2022-07-26T05:26:35.748Z,26.90
2022-07-26T05:29:03.138Z,26.90
2022-07-26T05:31:30.088Z,26.91
2022-07-26T05:33:56.972Z,26.93
2022-07-26T05:36:24.115Z,26.90
2022-07-26T05:38:50.977Z,26.97
2022-07-26T05:41:17.907Z,26.96
2022-07-26T05:43:45.059Z,26.96
2022-07-26T05:46:12.209Z,27.00
2022-07-26T05:48:39.784Z,26.99
2022-07-26T05:51:06.982Z,27.00
2022-07-26T05:53:34.407Z,27.01
2022-07-26T05:56:01.467Z,27.02
2022-07-26T05:58:28.582Z,27.09
2022-07-26T06:00:55.497Z,27.02
2022-07-26T06:03:22.401Z,27.06
2022-07-26T06:05:54.160Z,27.09
2022-07-26T06:08:21.256Z,26.99
2022-07-26T06:10:48.719Z,26.99
2022-07-26T06:13:16.382Z,27.05
2022-07-26T06:15:44.508Z,27.08
2022-07-26T06:18:11.768Z,27.11
2022-07-26T06:20:40.188Z,27.10
2022-07-26T06:23:07.067Z,27.09
2022-07-26T06:25:34.084Z,27.06
2022-07-26T06:28:05.104Z,27.03
2022-07-26T06:30:32.092Z,27.01
2022-07-26T06:32:59.127Z,26.96
2022-07-26T06:35:30.859Z,26.94
2022-07-26T06:37:58.537Z,26.94
2022-07-26T06:40:25.653Z,26.89
2022-07-26T06:42:52.868Z,26.85
2022-07-26T06:45:19.842Z,26.85
2022-07-26T06:47:46.786Z,26.83
2022-07-26T06:50:14.098Z,26.78
2022-07-26T06:52:41.112Z,26.77
2022-07-26T06:55:14.859Z,26.72
2022-07-26T06:57:44.954Z,26.72
2022-07-26T07:00:17.626Z,26.69
2022-07-26T07:02:44.563Z,26.66
2022-07-26T07:05:12.013Z,26.64
2022-07-26T07:07:39.217Z,26.59
2022-07-26T07:10:09.477Z,26.58
2022-07-26T07:12:36.424Z,26.54
2022-07-26T07:15:03.924Z,26.53
2022-07-26T07:17:30.801Z,26.52
2022-07-26T07:19:57.711Z,26.50
2022-07-26T07:22:24.874Z,26.45
2022-07-26T07:24:51.794Z,26.45
2022-07-26T07:27:18.726Z,26.40
2022-07-26T07:29:48.147Z,26.34
2022-07-26T07:32:15.857Z,26.36
2022-07-26T07:34:45.868Z,26.30
2022-07-26T07:37:15.909Z,26.32
2022-07-26T07:39:42.937Z,26.27
2022-07-26T07:42:09.922Z,26.28
2022-07-26T07:44:37.176Z,26.25
2022-07-26T07:47:04.265Z,26.25
2022-07-26T07:49:31.871Z,26.21
2022-07-26T07:51:59.088Z,26.22
2022-07-26T07:54:27.069Z,26.20
2022-07-26T07:56:56.419Z,26.16
2022-07-26T07:59:24.002Z,26.17
2022-07-26T08:01:50.976Z,26.14
2022-07-26T08:04:17.971Z,26.13
2022-07-26T08:06:50.121Z,26.10
2022-07-26T08:09:18.958Z,26.07
2022-07-26T08:11:50.734Z,26.10
2022-07-26T08:14:19.007Z,26.06
2022-07-26T08:16:45.970Z,25.99
2022-07-26T08:19:13.537Z,26.03
2022-07-26T08:21:43.104Z,25.99
2022-07-26T08:24:10.981Z,25.92
2022-07-26T08:26:38.438Z,25.88
2022-07-26T08:29:05.385Z,25.96
2022-07-26T08:31:32.327Z,25.90
2022-07-26T08:33:59.579Z,25.83
2022-07-26T08:36:32.165Z,25.87
2022-07-26T08:38:59.351Z,25.83
2022-07-26T08:41:26.503Z,25.83
2022-07-26T08:43:54.007Z,25.78
2022-07-26T08:46:27.868Z,25.82
2022-07-26T08:48:56.109Z,25.84
2022-07-26T08:51:23.952Z,25.80
2022-07-26T08:54:02.315Z,25.87
2022-07-26T08:56:33.047Z,25.81
2022-07-26T08:59:03.462Z,25.89
2022-07-26T09:01:30.481Z,25.87
2022-07-26T09:03:57.821Z,25.88
2022-07-26T09:06:28.176Z,25.87
2022-07-26T09:08:55.390Z,25.88
2022-07-26T09:11:32.723Z,25.93
2022-07-26T09:14:04.699Z,25.99
2022-07-26T09:16:34.944Z,26.00
2022-07-26T09:19:22.495Z,26.00
2022-07-26T09:21:49.659Z,26.00
2022-07-26T09:24:43.929Z,26.06
2022-07-26T09:27:12.593Z,26.04
2022-07-26T09:29:49.441Z,26.10
2022-07-26T09:32:21.615Z,26.11
2022-07-26T09:34:58.360Z,26.09
2022-07-26T09:37:36.252Z,26.15
2022-07-26T09:40:05.935Z,26.16
2022-07-26T09:42:33.135Z,26.17
2022-07-26T09:45:00.579Z,26.17
2022-07-26T09:47:37.807Z,26.18
2022-07-26T09:50:11.872Z,26.17
2022-07-26T09:52:38.876Z,26.17
2022-07-26T09:55:07.051Z,26.17
2022-07-26T09:57:35.250Z,26.10
2022-07-26T10:00:05.587Z,26.10
2022-07-26T10:02:33.202Z,26.09
2022-07-26T10:05:00.094Z,26.09
2022-07-26T10:07:27.198Z,26.07
2022-07-26T10:09:59.702Z,26.04
2022-07-26T10:12:30.479Z,26.05
2022-07-26T10:14:57.851Z,26.05
2022-07-26T10:17:31.669Z,26.03
2022-07-26T10:20:04.210Z,26.00
2022-07-26T10:22:43.660Z,25.97
2022-07-26T10:25:33.771Z,25.96
2022-07-26T10:28:00.636Z,25.91
2022-07-26T10:30:34.484Z,25.87
2022-07-26T10:33:04.366Z,25.83
2022-07-26T10:35:34.657Z,25.86
2022-07-26T10:38:05.807Z,25.84
2022-07-26T10:40:33.095Z,25.83
2022-07-26T10:43:38.932Z,25.82
2022-07-26T10:46:15.946Z,25.79
2022-07-26T10:48:59.026Z,25.82
2022-07-26T10:51:27.748Z,25.79
2022-07-26T10:54:02.059Z,25.77
2022-07-26T10:56:33.093Z,25.75
2022-07-26T10:59:01.140Z,25.76
2022-07-26T11:01:34.869Z,25.74
2022-07-26T11:04:02.220Z,25.76
2022-07-26T11:06:30.367Z,25.74
2022-07-26T11:08:57.330Z,25.74
2022-07-26T11:11:32.384Z,25.76
2022-07-26T11:14:10.396Z,25.74
2022-07-26T11:16:41.944Z,25.74
2022-07-26T11:19:20.086Z,25.74
2022-07-26T11:21:58.662Z,25.74
2022-07-26T11:24:26.892Z,25.76
2022-07-26T11:26:54.213Z,25.77
2022-07-26T11:29:37.283Z,25.77
2022-07-26T11:32:22.043Z,25.74
2022-07-26T11:35:00.199Z,25.75
2022-07-26T11:37:27.710Z,25.76
2022-07-26T11:39:54.600Z,25.80
2022-07-26T11:42:22.222Z,25.80
2022-07-26T11:44:49.832Z,25.80
2022-07-26T11:47:20.109Z,25.80
2022-07-26T11:49:51.873Z,25.81
2022-07-26T11:52:34.745Z,25.81
2022-07-26T11:55:01.698Z,25.83
2022-07-26T11:57:29.972Z,25.84
2022-07-26T11:59:57.252Z,25.84
2022-07-26T12:02:24.125Z,25.83
2022-07-26T12:04:56.932Z,25.86
2022-07-26T12:07:24.310Z,25.85
2022-07-26T12:09:52.310Z,25.84
2022-07-26T12:12:22.691Z,25.86
2022-07-26T12:14:57.601Z,25.86
2022-07-26T12:17:24.516Z,25.85
2022-07-26T12:19:51.634Z,25.88
2022-07-26T12:22:22.371Z,25.88
2022-07-26T12:24:52.251Z,25.89
2022-07-26T12:27:22.592Z,25.87
2022-07-26T12:29:53.977Z,25.87
2022-07-26T12:32:31.284Z,25.88
2022-07-26T12:35:03.043Z,25.89
2022-07-26T12:37:39.727Z,25.88
2022-07-26T12:40:12.666Z,25.89
2022-07-26T12:42:41.326Z,25.88
2022-07-26T12:45:10.406Z,25.90
2022-07-26T12:47:38.684Z,25.91
2022-07-26T12:50:06.452Z,25.90
2022-07-26T12:52:36.481Z,25.93
2022-07-26T12:55:04.712Z,25.92
2022-07-26T12:57:31.906Z,25.92
2022-07-26T12:59:59.140Z,25.93
2022-07-26T13:02:26.070Z,25.92
2022-07-26T13:04:56.917Z,25.95
2022-07-26T13:07:27.008Z,25.97
2022-07-26T13:10:14.269Z,25.98
2022-07-26T13:12:41.259Z,25.97
2022-07-26T13:15:09.003Z,25.97
2022-07-26T13:17:35.911Z,25.96
2022-07-26T13:20:02.837Z,25.98
2022-07-26T13:22:30.024Z,25.99
2022-07-26T13:24:56.931Z,25.98
2022-07-26T13:27:27.539Z,26.01
2022-07-26T13:30:03.688Z,25.98
2022-07-26T13:32:30.625Z,26.00
2022-07-26T13:34:57.501Z,25.99
2022-07-26T13:37:25.048Z,25.99
2022-07-26T13:39:51.884Z,26.00
2022-07-26T13:42:19.474Z,26.01
2022-07-26T13:44:46.572Z,26.03
2022-07-26T13:47:13.431Z,26.05
2022-07-26T13:49:40.328Z,26.05
2022-07-26T13:52:12.079Z,26.07
2022-07-26T13:54:42.197Z,26.08
2022-07-26T13:57:09.374Z,26.05
2022-07-26T13:59:36.254Z,26.06
2022-07-26T14:02:04.881Z,26.03
2022-07-26T14:04:32.353Z,26.05
2022-07-26T14:06:59.220Z,26.07
2022-07-26T14:09:26.192Z,26.05
2022-07-26T14:11:53.315Z,26.04
2022-07-26T14:14:20.364Z,26.01
2022-07-26T14:16:49.300Z,26.01
2022-07-26T14:19:17.403Z,26.02
2022-07-26T14:21:58.812Z,25.98
2022-07-26T14:24:27.563Z,25.99
2022-07-26T14:26:58.925Z,25.92
2022-07-26T14:29:27.003Z,25.95
2022-07-26T14:31:54.169Z,25.95
2022-07-26T14:34:21.086Z,25.92
2022-07-26T14:36:48.039Z,25.92
2022-07-26T14:39:15.134Z,25.95
2022-07-26T14:41:42.098Z,25.97
2022-07-26T14:44:09.328Z,25.89
2022-07-26T14:46:36.626Z,25.88
2022-07-26T14:49:03.691Z,25.91
2022-07-26T14:51:30.618Z,25.90
2022-07-26T14:53:57.748Z,25.90
2022-07-26T14:56:24.571Z,25.91
2022-07-26T14:58:51.581Z,25.92
2022-07-26T15:01:18.935Z,25.88
2022-07-26T15:03:45.918Z,25.94
2022-07-26T15:06:12.856Z,26.01
2022-07-26T15:08:41.207Z,26.09
2022-07-26T15:11:08.075Z,26.09
2022-07-26T15:13:35.195Z,26.12
2022-07-26T15:16:02.396Z,26.09
2022-07-26T15:18:30.762Z,26.18
2022-07-26T15:20:57.994Z,26.20
2022-07-26T15:23:25.241Z,26.21
2022-07-26T15:25:52.486Z,26.22
2022-07-26T15:28:19.322Z,26.21
2022-07-26T15:30:46.465Z,26.23
2022-07-26T15:33:14.621Z,26.28
2022-07-26T15:35:41.698Z,26.32
2022-07-26T15:38:08.750Z,26.33
2022-07-26T15:40:35.707Z,26.34
2022-07-26T15:43:03.014Z,26.37
2022-07-26T15:45:30.293Z,26.40
2022-07-26T15:48:11.430Z,26.40
2022-07-26T15:50:43.341Z,26.44
2022-07-26T15:53:10.299Z,26.43
2022-07-26T15:55:37.174Z,26.44
2022-07-26T15:58:04.289Z,26.42
2022-07-26T16:00:31.158Z,26.48
2022-07-26T16:02:58.063Z,26.50
2022-07-26T16:05:25.217Z,26.49
2022-07-26T16:07:52.102Z,26.50
2022-07-26T16:10:19.044Z,26.53
2022-07-26T16:12:46.252Z,26.53
2022-07-26T16:15:13.982Z,26.53
2022-07-26T16:17:40.846Z,26.54
2022-07-26T16:20:08.410Z,26.56
2022-07-26T16:22:35.453Z,26.60
2022-07-26T16:25:02.322Z,26.66
2022-07-26T16:27:29.442Z,26.69
2022-07-26T16:29:56.333Z,26.70
2022-07-26T16:32:23.249Z,26.69
2022-07-26T16:34:50.354Z,26.68
2022-07-26T16:37:17.361Z,26.73
2022-07-26T16:39:44.301Z,26.73
2022-07-26T16:42:11.387Z,26.75
2022-07-26T16:44:38.541Z,26.75
2022-07-26T16:47:05.620Z,26.81
2022-07-26T16:49:32.905Z,26.79
2022-07-26T16:51:59.952Z,26.77
2022-07-26T16:54:26.925Z,26.77
2022-07-26T16:56:54.133Z,26.75
2022-07-26T16:59:21.004Z,26.74
2022-07-26T17:01:47.959Z,26.75
2022-07-26T17:04:16.240Z,26.74
2022-07-26T17:06:56.463Z,26.75
2022-07-26T17:09:29.185Z,26.73
2022-07-26T17:11:56.088Z,26.74
2022-07-26T17:14:23.015Z,26.71
2022-07-26T17:16:50.274Z,26.71
2022-07-26T17:19:17.247Z,26.67
2022-07-26T17:21:44.261Z,26.69
2022-07-26T17:24:11.407Z,26.70
2022-07-26T17:26:38.348Z,26.69
2022-07-26T17:29:07.171Z,26.66
2022-07-26T17:31:34.420Z,26.70
2022-07-26T17:34:01.360Z,26.70
2022-07-26T17:36:29.610Z,26.71
2022-07-26T17:38:57.192Z,26.70
2022-07-26T17:41:24.509Z,26.65
2022-07-26T17:43:59.776Z,26.64
2022-07-26T17:46:26.888Z,26.67
2022-07-26T17:48:53.889Z,26.64
2022-07-26T17:51:21.117Z,26.62
2022-07-26T17:53:52.833Z,26.62
2022-07-26T17:56:20.322Z,26.60
2022-07-26T17:58:47.397Z,26.57
2022-07-26T18:01:14.360Z,26.51
2022-07-26T18:03:41.510Z,26.55
2022-07-26T18:06:08.656Z,26.53
2022-07-26T18:08:35.550Z,26.47
2022-07-26T18:11:05.521Z,26.44
2022-07-26T18:13:32.924Z,26.42
2022-07-26T18:16:04.145Z,26.38
2022-07-26T18:18:32.726Z,26.32
2022-07-26T18:21:00.029Z,26.28
2022-07-26T18:23:26.913Z,26.26
2022-07-26T18:25:53.919Z,26.24
2022-07-26T18:28:21.241Z,26.16
2022-07-26T18:30:48.131Z,26.12
2022-07-26T18:33:15.359Z,26.09
2022-07-26T18:35:42.755Z,26.09
2022-07-26T18:38:09.733Z,26.03
2022-07-26T18:40:37.493Z,25.99
2022-07-26T18:43:04.591Z,25.98
2022-07-26T18:45:31.556Z,25.98
2022-07-26T18:47:58.442Z,25.92
2022-07-26T18:50:27.163Z,25.84
2022-07-26T18:52:57.982Z,25.93
2022-07-26T18:55:24.877Z,25.90
2022-07-26T18:57:51.997Z,25.83
2022-07-26T19:00:20.261Z,25.87
2022-07-26T19:02:47.310Z,25.79
2022-07-26T19:05:14.829Z,25.80
2022-07-26T19:07:41.960Z,25.77
2022-07-26T19:10:09.627Z,25.79
2022-07-26T19:12:37.411Z,25.76
2022-07-26T19:15:05.410Z,25.63
2022-07-26T19:17:32.930Z,25.66
2022-07-26T19:20:00.316Z,25.63
2022-07-26T19:22:29.368Z,25.62
2022-07-26T19:24:56.457Z,25.60
2022-07-26T19:27:23.596Z,25.54
2022-07-26T19:29:50.488Z,25.48
2022-07-26T19:32:17.368Z,25.40
2022-07-26T19:34:44.503Z,25.40
2022-07-26T19:37:11.364Z,25.28
2022-07-26T19:39:38.304Z,25.32
2022-07-26T19:42:05.527Z,25.19
2022-07-26T19:44:32.543Z,25.22
2022-07-26T19:46:59.391Z,25.11
2022-07-26T19:49:26.633Z,25.06
2022-07-26T19:51:53.572Z,25.09
2022-07-26T19:54:21.388Z,25.06
2022-07-26T19:56:48.482Z,24.98
2022-07-26T19:59:20.948Z,24.98
2022-07-26T20:01:52.812Z,24.93
2022-07-26T20:04:19.974Z,24.91
2022-07-26T20:06:47.100Z,24.92
2022-07-26T20:09:14.448Z,24.86
2022-07-26T20:11:42.820Z,24.77
2022-07-26T20:14:09.712Z,24.72
2022-07-26T20:16:36.865Z,24.67
2022-07-26T20:19:03.758Z,24.60
2022-07-26T20:21:30.692Z,24.58
2022-07-26T20:23:57.776Z,24.53
2022-07-26T20:26:24.653Z,24.51
2022-07-26T20:28:51.505Z,24.38
2022-07-26T20:31:18.737Z,24.42
2022-07-26T20:33:45.676Z,24.32
2022-07-26T20:36:12.567Z,24.39
2022-07-26T20:38:39.751Z,24.39
2022-07-26T20:41:06.763Z,24.27
2022-07-26T20:43:33.777Z,24.30
2022-07-26T20:46:02.140Z,24.22
2022-07-26T20:48:29.107Z,24.13
2022-07-26T20:50:55.994Z,24.07
2022-07-26T20:53:23.436Z,24.11
2022-07-26T20:55:50.385Z,24.09
2022-07-26T20:58:18.025Z,23.98
2022-07-26T21:00:45.147Z,24.04
2022-07-26T21:03:13.793Z,23.94
2022-07-26T21:05:40.651Z,24.03
2022-07-26T21:08:07.838Z,23.96
2022-07-26T21:10:34.838Z,23.82
2022-07-26T21:13:01.776Z,23.85
2022-07-26T21:15:29.477Z,23.83
2022-07-26T21:17:56.696Z,23.80
2022-07-26T21:20:23.588Z,23.76
2022-07-26T21:22:50.745Z,23.66
2022-07-26T21:25:17.601Z,23.66
2022-07-26T21:27:44.476Z,23.60
2022-07-26T21:30:11.997Z,23.55
2022-07-26T21:32:38.812Z,23.49
2022-07-26T21:35:06.175Z,23.50
2022-07-26T21:37:33.263Z,23.47
2022-07-26T21:40:00.859Z,23.40
2022-07-26T21:42:28.039Z,23.41
2022-07-26T21:44:55.219Z,23.36
2022-07-26T21:47:22.084Z,23.38
2022-07-26T21:49:48.930Z,23.31
2022-07-26T21:52:15.978Z,23.29
2022-07-26T21:54:42.782Z,23.33
2022-07-26T21:57:09.682Z,23.22
2022-07-26T21:59:36.768Z,23.23
2022-07-26T22:02:03.825Z,23.15
2022-07-26T22:04:30.984Z,23.13
2022-07-26T22:06:58.031Z,23.15
2022-07-26T22:09:24.866Z,23.11
2022-07-26T22:11:53.078Z,23.16
2022-07-26T22:14:20.479Z,23.07
2022-07-26T22:16:50.254Z,23.07
2022-07-26T22:19:17.151Z,23.00
2022-07-26T22:21:44.329Z,22.98
2022-07-26T22:24:11.183Z,22.92
2022-07-26T22:26:38.077Z,22.91
2022-07-26T22:29:05.198Z,22.95
2022-07-26T22:31:32.196Z,22.93
2022-07-26T22:33:59.068Z,22.85
2022-07-26T22:36:26.160Z,22.85
2022-07-26T22:38:53.069Z,22.78
2022-07-26T22:41:20.102Z,22.75
2022-07-26T22:43:47.170Z,22.73
2022-07-26T22:46:14.260Z,22.71
2022-07-26T22:48:45.974Z,22.69
2022-07-26T22:51:15.025Z,22.69
2022-07-26T22:53:41.862Z,22.65
2022-07-26T22:56:08.671Z,22.59
2022-07-26T22:58:35.768Z,22.57
2022-07-26T23:01:02.680Z,22.53
2022-07-26T23:03:29.598Z,22.56
2022-07-26T23:05:57.949Z,22.49
2022-07-26T23:11:12.047Z,22.46
2022-07-26T23:13:38.880Z,22.42
2022-07-26T23:16:05.825Z,22.44
2022-07-26T23:18:33.462Z,22.38
2022-07-26T23:21:00.315Z,22.35
2022-07-26T23:23:29.681Z,22.31
2022-07-26T23:25:58.166Z,22.37
2022-07-26T23:28:35.482Z,22.35
2022-07-26T23:31:11.708Z,22.30
2022-07-26T23:33:53.453Z,22.26
2022-07-26T23:36:25.873Z,22.22
2022-07-26T23:38:53.815Z,22.26
2022-07-26T23:41:20.883Z,22.19
2022-07-26T23:43:47.944Z,22.15
2022-07-26T23:46:14.903Z,22.13
2022-07-26T23:48:41.835Z,22.19
2022-07-26T23:51:08.990Z,22.15
2022-07-26T23:53:35.800Z,22.14
2022-07-26T23:56:02.657Z,22.03
2022-07-26T23:58:29.715Z,22.00
